Ariel — SGUB — position and weather

sailwx.info

Track history (hours):
 
Tides and Currents Weather Stations Pressure Air Temp Water Temp Dewpoint Dewpoint Depression Visibility Wind Speed Wind Dir Waves Ship Positions

Ariel

Last reported at 2017-Sep-25 09:58 UTC. Time now 2017-Sep-26 05:57 UTC.
Position N 59°08' E 018°24'.

Length 22 m; draft 2.6 m.

Type: Sailing vessel. MMSI: 265516070.

Date/timePositionNaut miles runAvg speedWind from/ knotsBaromVisibWave heightAir tempDewpointWater temp
2017-Sep-25 09:58N 59°08' E 018°24'0 0.0
2017-Sep-25 06:24N 59°08' E 018°24'0 0.0
2017-Sep-25 04:59N 59°08' E 018°24'0 0.0
2017-Sep-24 19:57N 59°08' E 018°24'1 0.1
2017-Sep-24 14:09N 59°07' E 018°24'1 2.9
2017-Sep-24 13:55N 59°07' E 018°23'1 2.3
2017-Sep-24 13:20N 59°07' E 018°26'1 1.9
2017-Sep-24 12:58N 59°08' E 018°27'1 1.7
2017-Sep-24 12:30N 59°08' E 018°28'1 0.3
2017-Sep-24 10:22N 59°08' E 018°29'1 1.8
2017-Sep-24 09:54N 59°09' E 018°28'1 2.4
2017-Sep-24 09:30N 59°08' E 018°28'1 1.2
2017-Sep-24 08:59N 59°08' E 018°27'2 1.2
2017-Sep-24 07:44N 59°08' E 018°24'  
2017-Sep-20 04:02N 59°08' E 018°24'0 0.0
2017-Sep-20 03:46N 59°08' E 018°24'0 0.0
2017-Sep-18 05:51N 59°08' E 018°24'0 0.0
2017-Sep-18 05:30N 59°08' E 018°24'0 0.0
2017-Sep-18 02:45N 59°08' E 018°24'0 0.0
2017-Sep-18 02:16N 59°08' E 018°24'0 0.0
2017-Sep-18 01:58N 59°08' E 018°24'0 0.0
2017-Sep-18 01:30N 59°08' E 018°24'0 0.0
2017-Sep-18 00:51N 59°08' E 018°24'0 0.0
2017-Sep-18 00:30N 59°08' E 018°24'0 0.0
2017-Sep-17 23:50N 59°08' E 018°24'0 0.0
2017-Sep-17 21:21N 59°08' E 018°24'0 0.0
2017-Sep-17 20:44N 59°08' E 018°24'0 0.0
2017-Sep-17 14:08N 59°08' E 018°24'0 0.7
2017-Sep-17 14:00N 59°08' E 018°24'2 3.9
2017-Sep-17 13:30N 59°07' E 018°21'1 2.1
2017-Sep-17 13:00N 59°06' E 018°22'1 1.2
2017-Sep-17 12:30N 59°05' E 018°22'1 1.5
2017-Sep-17 12:00N 59°05' E 018°20'1 1.1
2017-Sep-17 11:30N 59°04' E 018°20'1 2.8
2017-Sep-17 11:00N 59°05' E 018°23'2 3.6
2017-Sep-17 10:30N 59°06' E 018°26'2 3.2
2017-Sep-17 10:00N 59°07' E 018°28'1 2.2
2017-Sep-17 09:29N 59°08' E 018°27'1 2.6
2017-Sep-17 08:56N 59°08' E 018°25'0 0.0
2017-Sep-17 02:35N 59°08' E 018°24'0 0.0
2017-Sep-17 02:30N 59°08' E 018°24'0 0.0
2017-Sep-17 01:51N 59°08' E 018°24'0 0.0
2017-Sep-16 19:28N 59°08' E 018°24'0 0.0
2017-Sep-16 19:00N 59°08' E 018°24'0 0.0
2017-Sep-16 18:29N 59°08' E 018°24'0 0.0
2017-Sep-16 02:39N 59°08' E 018°24'0 0.0
2017-Sep-16 02:16N 59°08' E 018°24'  
Track history (hours):
 
Tides and Currents Weather Stations Pressure Air Temp Water Temp Dewpoint Dewpoint Depression Visibility Wind Speed Wind Dir Waves Ship Positions

Ariel

Last reported at 2017-Sep-25 09:58 UTC. Time now 2017-Sep-26 05:57 UTC.
Position N 59°08' E 018°24'.

Length 22 m; draft 2.6 m.

Type: Sailing vessel. MMSI: 265516070.

Date/timePositionNaut miles runAvg speedWind from/ knotsBaromVisibWave heightAir tempDewpointWater temp
2017-Sep-25 09:58N 59°08' E 018°24'0 0.0
2017-Sep-25 06:24N 59°08' E 018°24'0 0.0
2017-Sep-25 04:59N 59°08' E 018°24'0 0.0
2017-Sep-24 19:57N 59°08' E 018°24'1 0.1
2017-Sep-24 14:09N 59°07' E 018°24'1 2.9
2017-Sep-24 13:55N 59°07' E 018°23'1 2.3
2017-Sep-24 13:20N 59°07' E 018°26'1 1.9
2017-Sep-24 12:58N 59°08' E 018°27'1 1.7
2017-Sep-24 12:30N 59°08' E 018°28'1 0.3
2017-Sep-24 10:22N 59°08' E 018°29'1 1.8
2017-Sep-24 09:54N 59°09' E 018°28'1 2.4
2017-Sep-24 09:30N 59°08' E 018°28'1 1.2
2017-Sep-24 08:59N 59°08' E 018°27'2 1.2
2017-Sep-24 07:44N 59°08' E 018°24'  
2017-Sep-20 04:02N 59°08' E 018°24'0 0.0
2017-Sep-20 03:46N 59°08' E 018°24'0 0.0
2017-Sep-18 05:51N 59°08' E 018°24'0 0.0
2017-Sep-18 05:30N 59°08' E 018°24'0 0.0
2017-Sep-18 02:45N 59°08' E 018°24'0 0.0
2017-Sep-18 02:16N 59°08' E 018°24'0 0.0
2017-Sep-18 01:58N 59°08' E 018°24'0 0.0
2017-Sep-18 01:30N 59°08' E 018°24'0 0.0
2017-Sep-18 00:51N 59°08' E 018°24'0 0.0
2017-Sep-18 00:30N 59°08' E 018°24'0 0.0
2017-Sep-17 23:50N 59°08' E 018°24'0 0.0
2017-Sep-17 21:21N 59°08' E 018°24'0 0.0
2017-Sep-17 20:44N 59°08' E 018°24'0 0.0
2017-Sep-17 14:08N 59°08' E 018°24'0 0.7
2017-Sep-17 14:00N 59°08' E 018°24'2 3.9
2017-Sep-17 13:30N 59°07' E 018°21'1 2.1
2017-Sep-17 13:00N 59°06' E 018°22'1 1.2
2017-Sep-17 12:30N 59°05' E 018°22'1 1.5
2017-Sep-17 12:00N 59°05' E 018°20'1 1.1
2017-Sep-17 11:30N 59°04' E 018°20'1 2.8
2017-Sep-17 11:00N 59°05' E 018°23'2 3.6
2017-Sep-17 10:30N 59°06' E 018°26'2 3.2
2017-Sep-17 10:00N 59°07' E 018°28'1 2.2
2017-Sep-17 09:29N 59°08' E 018°27'1 2.6
2017-Sep-17 08:56N 59°08' E 018°25'0 0.0
2017-Sep-17 02:35N 59°08' E 018°24'0 0.0
2017-Sep-17 02:30N 59°08' E 018°24'0 0.0
2017-Sep-17 01:51N 59°08' E 018°24'0 0.0
2017-Sep-16 19:28N 59°08' E 018°24'0 0.0
2017-Sep-16 19:00N 59°08' E 018°24'0 0.0
2017-Sep-16 18:29N 59°08' E 018°24'0 0.0
2017-Sep-16 02:39N 59°08' E 018°24'0 0.0
2017-Sep-16 02:16N 59°08' E 018°24'  

Dump ship's entire track history